createdAt,value
2022-12-17T00:02:19.324Z,-3.73
2022-12-17T00:05:04.306Z,-3.77
2022-12-17T00:07:49.638Z,-3.82
2022-12-17T00:10:34.704Z,-3.76
2022-12-17T00:13:20.033Z,-3.72
2022-12-17T00:16:10.286Z,-3.78
2022-12-17T00:18:55.412Z,-3.71
2022-12-17T00:21:41.812Z,-3.73
2022-12-17T00:24:27.064Z,-3.76
2022-12-17T00:27:11.849Z,-3.71
2022-12-17T00:29:57.182Z,-3.69
2022-12-17T00:32:42.793Z,-3.72
2022-12-17T00:35:27.602Z,-3.74
2022-12-17T00:38:12.678Z,-3.75
2022-12-17T00:40:58.071Z,-3.77
2022-12-17T00:43:43.308Z,-3.78
2022-12-17T00:46:28.731Z,-3.79
2022-12-17T00:49:13.847Z,-3.78
2022-12-17T00:51:59.255Z,-3.89
2022-12-17T00:54:44.621Z,-3.85
2022-12-17T00:57:30.020Z,-3.80
2022-12-17T01:00:15.206Z,-3.82
2022-12-17T01:03:00.222Z,-3.88
2022-12-17T01:05:45.561Z,-3.87
2022-12-17T01:08:33.598Z,-3.82
2022-12-17T01:11:20.265Z,-3.86
2022-12-17T01:14:05.450Z,-3.83
2022-12-17T01:16:50.325Z,-3.81
2022-12-17T01:19:35.577Z,-3.80
2022-12-17T01:22:20.907Z,-3.79
2022-12-17T01:25:06.471Z,-3.88
2022-12-17T01:27:51.704Z,-3.89
2022-12-17T01:30:37.228Z,-3.92
2022-12-17T01:33:28.467Z,-3.90
2022-12-17T01:36:17.472Z,-3.93
2022-12-17T01:39:02.712Z,-3.94
2022-12-17T01:41:48.148Z,-3.90
2022-12-17T01:45:12.084Z,-3.93
2022-12-17T01:48:03.040Z,-3.98
2022-12-17T01:50:52.915Z,-3.95
2022-12-17T01:53:42.938Z,-3.92
2022-12-17T01:56:29.532Z,-3.94
2022-12-17T01:59:15.225Z,-3.97
2022-12-17T02:02:00.553Z,-4.00
2022-12-17T02:04:51.222Z,-3.99
2022-12-17T02:07:42.254Z,-4.05
2022-12-17T02:10:36.495Z,-4.07
2022-12-17T02:13:31.189Z,-4.14
2022-12-17T02:16:27.688Z,-4.24
2022-12-17T02:19:24.539Z,-4.26
2022-12-17T02:22:36.899Z,-4.29
2022-12-17T02:25:35.268Z,-4.30
2022-12-17T02:28:21.021Z,-4.37
2022-12-17T02:31:06.341Z,-4.38
2022-12-17T02:33:51.708Z,-4.46
2022-12-17T02:36:36.872Z,-4.49
2022-12-17T02:39:22.238Z,-4.43
2022-12-17T02:42:11.753Z,-4.46
2022-12-17T02:44:59.523Z,-4.51
2022-12-17T02:47:58.557Z,-4.51
2022-12-17T02:50:43.316Z,-4.55
2022-12-17T02:53:28.621Z,-4.50
2022-12-17T02:56:13.834Z,-4.48
2022-12-17T02:58:59.164Z,-4.45
2022-12-17T03:01:44.538Z,-4.45
2022-12-17T03:04:29.771Z,-4.50
2022-12-17T03:07:15.067Z,-4.53
2022-12-17T03:10:00.163Z,-4.52
2022-12-17T03:12:45.440Z,-4.45
2022-12-17T03:15:30.669Z,-4.48
2022-12-17T03:18:15.524Z,-4.52
2022-12-17T03:21:00.692Z,-4.52
2022-12-17T03:23:45.865Z,-4.56
2022-12-17T03:26:30.973Z,-4.53
2022-12-17T03:29:16.171Z,-4.47
2022-12-17T03:32:01.209Z,-4.48
2022-12-17T03:34:46.636Z,-4.50
2022-12-17T03:37:31.765Z,-4.47
2022-12-17T03:40:17.133Z,-4.44
2022-12-17T03:43:02.626Z,-4.54
2022-12-17T03:45:47.993Z,-4.51
2022-12-17T03:48:34.208Z,-4.50
2022-12-17T03:51:20.384Z,-4.50
2022-12-17T03:54:06.204Z,-4.48
2022-12-17T03:56:51.756Z,-4.42
2022-12-17T03:59:36.893Z,-4.41
2022-12-17T04:02:22.198Z,-4.41
2022-12-17T04:05:07.423Z,-4.37
2022-12-17T04:07:52.702Z,-4.35
2022-12-17T04:10:38.228Z,-4.34
2022-12-17T04:13:23.726Z,-4.43
2022-12-17T04:16:09.344Z,-4.42
2022-12-17T04:18:54.557Z,-4.41
2022-12-17T04:21:39.625Z,-4.40
2022-12-17T04:24:25.219Z,-4.41
2022-12-17T04:27:15.078Z,-4.41
2022-12-17T04:29:59.893Z,-4.39
2022-12-17T04:32:44.820Z,-4.38
2022-12-17T04:35:30.152Z,-4.35
2022-12-17T04:38:15.637Z,-4.33
2022-12-17T04:41:00.492Z,-4.30
2022-12-17T04:43:45.433Z,-4.34
2022-12-17T04:46:30.688Z,-4.37
2022-12-17T04:49:15.876Z,-4.40
2022-12-17T04:52:00.918Z,-4.36
2022-12-17T04:54:45.727Z,-4.33
2022-12-17T04:57:31.091Z,-4.33
2022-12-17T05:00:16.458Z,-4.29
2022-12-17T05:03:01.793Z,-4.25
2022-12-17T05:05:47.328Z,-4.27
2022-12-17T05:08:35.686Z,-4.24
2022-12-17T05:11:35.946Z,-4.28
2022-12-17T05:14:21.269Z,-4.22
2022-12-17T05:17:06.724Z,-4.18
2022-12-17T05:19:52.005Z,-4.20
2022-12-17T05:22:37.047Z,-4.21
2022-12-17T05:25:22.567Z,-4.35
2022-12-17T05:28:07.367Z,-4.37
2022-12-17T05:30:52.486Z,-4.36
2022-12-17T05:33:37.900Z,-4.37
2022-12-17T05:36:23.738Z,-4.40
2022-12-17T05:39:09.155Z,-4.40
2022-12-17T05:41:54.492Z,-4.52
2022-12-17T05:44:39.918Z,-4.48
2022-12-17T05:47:25.156Z,-4.44
2022-12-17T05:50:10.506Z,-4.45
2022-12-17T05:52:55.724Z,-4.51
2022-12-17T05:55:40.574Z,-4.54
2022-12-17T05:58:29.348Z,-4.51
2022-12-17T06:01:19.762Z,-4.60
2022-12-17T06:04:05.991Z,-4.60
2022-12-17T06:06:51.633Z,-4.56
2022-12-17T06:09:37.457Z,-4.63
2022-12-17T06:12:22.738Z,-4.77
2022-12-17T06:15:07.971Z,-4.73
2022-12-17T06:17:52.763Z,-4.83
2022-12-17T06:20:38.072Z,-4.78
2022-12-17T06:23:26.055Z,-4.72
2022-12-17T06:26:11.613Z,-4.84
2022-12-17T06:28:56.627Z,-4.85
2022-12-17T06:31:41.947Z,-4.88
2022-12-17T06:34:27.279Z,-4.89
2022-12-17T06:37:12.594Z,-4.91
2022-12-17T06:39:57.620Z,-4.90
2022-12-17T06:42:42.979Z,-4.83
2022-12-17T06:45:28.406Z,-4.92
2022-12-17T06:48:27.582Z,-5.01
2022-12-17T06:51:13.226Z,-5.09
2022-12-17T06:53:58.772Z,-5.20
2022-12-17T06:56:44.044Z,-5.26
2022-12-17T06:59:29.021Z,-5.27
2022-12-17T07:02:14.651Z,-5.29
2022-12-17T07:04:59.754Z,-5.25
2022-12-17T07:07:45.251Z,-5.16
2022-12-17T07:10:30.433Z,-5.19
2022-12-17T07:13:23.250Z,-5.18
2022-12-17T07:16:09.138Z,-5.17
2022-12-17T07:18:55.544Z,-5.20
2022-12-17T07:21:40.840Z,-5.21
2022-12-17T07:24:26.153Z,-5.22
2022-12-17T07:27:11.560Z,-5.26
2022-12-17T07:29:56.584Z,-5.21
2022-12-17T07:32:41.963Z,-5.26
2022-12-17T07:35:27.029Z,-5.26
2022-12-17T07:38:22.910Z,-5.30
2022-12-17T07:41:08.214Z,-5.33
2022-12-17T07:43:53.751Z,-5.30
2022-12-17T07:46:39.003Z,-5.34
2022-12-17T07:49:26.225Z,-5.36
2022-12-17T07:52:12.073Z,-5.24
2022-12-17T07:54:57.239Z,-5.18
2022-12-17T07:57:42.448Z,-5.19
2022-12-17T08:00:28.187Z,-5.17
2022-12-17T08:03:17.757Z,-5.18
2022-12-17T08:06:03.136Z,-5.22
2022-12-17T08:08:48.116Z,-5.17
2022-12-17T08:11:33.529Z,-5.17
2022-12-17T08:14:18.894Z,-5.26
2022-12-17T08:17:04.362Z,-5.18
2022-12-17T08:19:49.868Z,-5.09
2022-12-17T08:22:35.218Z,-5.09
2022-12-17T08:25:20.703Z,-5.09
2022-12-17T08:28:11.169Z,-5.19
2022-12-17T08:31:01.391Z,-5.13
2022-12-17T08:33:46.538Z,-5.03
2022-12-17T08:36:31.629Z,-4.99
2022-12-17T08:39:16.415Z,-4.99
2022-12-17T08:42:04.560Z,-5.00
2022-12-17T08:44:49.993Z,-4.97
2022-12-17T08:47:35.341Z,-5.02
2022-12-17T08:50:21.454Z,-5.03
2022-12-17T08:53:06.789Z,-5.02
2022-12-17T08:55:51.847Z,-5.01
2022-12-17T08:58:37.263Z,-4.99
2022-12-17T09:01:22.536Z,-4.92
2022-12-17T09:04:07.822Z,-4.87
2022-12-17T09:06:52.922Z,-4.96
2022-12-17T09:09:38.075Z,-4.99
2022-12-17T09:12:23.169Z,-4.97
2022-12-17T09:15:08.246Z,-4.91
2022-12-17T09:17:56.595Z,-4.87
2022-12-17T09:20:41.935Z,-4.82
2022-12-17T09:23:27.200Z,-4.80
2022-12-17T09:26:14.795Z,-4.85
2022-12-17T09:29:00.957Z,-4.76
2022-12-17T09:31:46.439Z,-4.75
2022-12-17T09:34:32.100Z,-4.70
2022-12-17T09:37:17.364Z,-4.67
2022-12-17T09:40:02.649Z,-4.65
2022-12-17T09:43:05.571Z,-4.69
2022-12-17T09:46:13.947Z,-4.64
2022-12-17T09:49:19.644Z,-4.68
2022-12-17T09:52:05.525Z,-4.60
2022-12-17T09:55:00.801Z,-4.63
2022-12-17T09:57:53.874Z,-4.63
2022-12-17T10:00:43.277Z,-4.52
2022-12-17T10:03:38.597Z,-4.49
2022-12-17T10:06:30.682Z,-4.46
2022-12-17T10:09:20.120Z,-4.42
2022-12-17T10:12:05.488Z,-4.48
2022-12-17T10:14:50.932Z,-4.35
2022-12-17T10:17:41.699Z,-4.39
2022-12-17T10:20:56.791Z,-4.40
2022-12-17T10:23:52.770Z,-4.45
2022-12-17T10:26:41.560Z,-4.46
2022-12-17T10:29:36.206Z,-4.34
2022-12-17T10:32:34.892Z,-4.36
2022-12-17T10:35:52.900Z,-4.35
2022-12-17T10:38:40.592Z,-4.27
2022-12-17T10:41:46.363Z,-4.13
2022-12-17T10:44:57.633Z,-4.04
2022-12-17T10:47:45.067Z,-3.99
2022-12-17T10:50:34.922Z,-3.96
2022-12-17T10:53:21.049Z,-4.01
2022-12-17T10:56:15.977Z,-4.03
2022-12-17T10:59:09.956Z,-3.96
2022-12-17T11:01:58.921Z,-3.84
2022-12-17T11:04:52.656Z,-3.84
2022-12-17T11:07:48.088Z,-3.80
2022-12-17T11:10:40.412Z,-3.85
2022-12-17T11:13:34.709Z,-3.72
2022-12-17T11:16:21.426Z,-3.68
2022-12-17T11:19:23.241Z,-3.58
2022-12-17T11:22:11.059Z,-3.52
2022-12-17T11:25:02.704Z,-3.76
2022-12-17T11:27:55.072Z,-3.62
2022-12-17T11:30:41.013Z,-3.55
2022-12-17T11:33:40.407Z,-3.38
2022-12-17T11:36:38.664Z,-3.30
2022-12-17T11:39:51.252Z,-3.28
2022-12-17T11:43:01.743Z,-3.29
2022-12-17T11:45:54.657Z,-3.38
2022-12-17T11:49:02.861Z,-3.40
2022-12-17T11:52:05.863Z,-3.31
2022-12-17T11:55:07.562Z,-3.22
2022-12-17T11:58:14.504Z,-3.36
2022-12-17T12:01:39.597Z,-3.26
2022-12-17T12:04:39.943Z,-3.28
2022-12-17T12:07:49.203Z,-3.25
2022-12-17T12:10:43.551Z,-3.08
2022-12-17T12:14:02.444Z,-3.28
2022-12-17T12:16:58.463Z,-3.29
2022-12-17T12:20:03.098Z,-3.27
2022-12-17T12:23:00.570Z,-3.25
2022-12-17T12:26:15.069Z,-3.21
2022-12-17T12:29:13.452Z,-3.28
2022-12-17T12:32:06.918Z,-3.21
2022-12-17T12:34:56.375Z,-3.15
2022-12-17T12:37:42.751Z,-3.32
2022-12-17T12:40:40.183Z,-3.39
2022-12-17T12:43:42.644Z,-3.57
2022-12-17T12:46:40.052Z,-3.50
2022-12-17T12:49:31.112Z,-3.42
2022-12-17T12:52:18.649Z,-3.68
2022-12-17T12:55:03.559Z,-3.57
2022-12-17T12:57:54.640Z,-3.44
2022-12-17T13:00:45.689Z,-3.46
2022-12-17T13:03:54.914Z,-3.29
2022-12-17T13:06:39.956Z,-3.15
2022-12-17T13:09:30.886Z,-3.03
2022-12-17T13:12:01.992Z,-3.02
2022-12-17T13:14:31.356Z,-3.01
2022-12-17T13:17:01.756Z,-3.01
2022-12-17T13:19:31.440Z,-2.83
2022-12-17T13:22:10.767Z,-2.71
2022-12-17T13:24:37.229Z,-2.67
2022-12-17T13:27:04.774Z,-2.54
2022-12-17T13:29:37.792Z,-2.37
2022-12-17T13:32:12.031Z,-2.42
2022-12-17T13:34:53.681Z,-2.29
2022-12-17T13:37:23.211Z,-2.24
2022-12-17T13:39:52.994Z,-2.41
2022-12-17T13:42:28.603Z,-2.51
2022-12-17T13:44:56.517Z,-2.47
2022-12-17T13:47:30.563Z,-2.44
2022-12-17T13:52:46.882Z,-2.49
2022-12-17T13:55:25.951Z,-2.36
2022-12-17T13:57:53.988Z,-2.35
2022-12-17T14:00:25.952Z,-2.41
2022-12-17T14:02:53.755Z,-2.58
2022-12-17T14:05:37.522Z,-2.68
2022-12-17T14:08:05.985Z,-2.76
2022-12-17T14:10:33.652Z,-2.84
2022-12-17T14:13:14.715Z,-3.03
2022-12-17T14:15:48.444Z,-3.14
2022-12-17T14:18:18.246Z,-3.08
2022-12-17T14:20:45.661Z,-3.09
2022-12-17T14:23:33.427Z,-3.30
2022-12-17T14:26:00.289Z,-3.37
2022-12-17T14:28:31.175Z,-3.41
2022-12-17T14:31:26.488Z,-3.59
2022-12-17T14:34:20.202Z,-3.67
2022-12-17T14:36:47.648Z,-3.62
2022-12-17T14:39:32.903Z,-3.61
2022-12-17T14:42:25.559Z,-3.75
2022-12-17T14:45:07.969Z,-3.86
2022-12-17T14:47:36.753Z,-3.98
2022-12-17T14:50:12.350Z,-4.09
2022-12-17T14:52:50.687Z,-4.30
2022-12-17T14:55:36.609Z,-4.33
2022-12-17T14:58:14.875Z,-4.51
2022-12-17T15:01:09.483Z,-4.72
2022-12-17T15:03:42.164Z,-4.73
2022-12-17T15:06:11.911Z,-4.68
2022-12-17T15:08:47.350Z,-4.95
2022-12-17T15:11:16.599Z,-4.90
2022-12-17T15:13:43.248Z,-5.14
2022-12-17T15:16:11.015Z,-5.10
2022-12-17T15:18:38.474Z,-5.05
2022-12-17T15:21:05.960Z,-5.10
2022-12-17T15:23:33.641Z,-5.21
2022-12-17T15:26:00.271Z,-5.22
2022-12-17T15:28:27.091Z,-5.35
2022-12-17T15:30:53.778Z,-5.41
2022-12-17T15:33:20.592Z,-5.58
2022-12-17T15:35:47.526Z,-5.57
2022-12-17T15:38:14.185Z,-5.72
2022-12-17T15:40:41.225Z,-5.75
2022-12-17T15:43:13.838Z,-5.78
2022-12-17T15:45:42.843Z,-5.83
2022-12-17T15:48:10.841Z,-5.89
2022-12-17T15:50:38.325Z,-5.97
2022-12-17T15:53:05.592Z,-6.08
2022-12-17T15:55:32.607Z,-6.19
2022-12-17T15:57:59.293Z,-6.30
2022-12-17T16:00:26.016Z,-6.26
2022-12-17T16:02:53.181Z,-6.22
2022-12-17T16:05:21.019Z,-6.28
2022-12-17T16:07:48.089Z,-6.26
2022-12-17T16:10:15.279Z,-6.25
2022-12-17T16:12:42.503Z,-6.26
2022-12-17T16:15:10.442Z,-6.30
2022-12-17T16:17:37.168Z,-6.31
2022-12-17T16:20:05.798Z,-6.35
2022-12-17T16:22:32.860Z,-6.37
2022-12-17T16:24:59.513Z,-6.34
2022-12-17T16:27:26.133Z,-6.46
2022-12-17T16:29:52.781Z,-6.47
2022-12-17T16:32:20.107Z,-6.55
2022-12-17T16:34:46.959Z,-6.55
2022-12-17T16:37:14.928Z,-6.53
2022-12-17T16:39:41.524Z,-6.58
2022-12-17T16:42:08.154Z,-6.54
2022-12-17T16:44:34.935Z,-6.50
2022-12-17T16:47:01.714Z,-6.65
2022-12-17T16:49:28.615Z,-6.62
2022-12-17T16:51:57.924Z,-6.59
2022-12-17T16:54:27.278Z,-6.59
2022-12-17T16:56:54.823Z,-6.65
2022-12-17T16:59:22.178Z,-6.63
2022-12-17T17:01:50.436Z,-6.69
2022-12-17T17:04:19.503Z,-6.64
2022-12-17T17:06:49.277Z,-6.62
2022-12-17T17:09:17.510Z,-6.58
2022-12-17T17:11:49.473Z,-6.57
2022-12-17T17:14:18.275Z,-6.53
2022-12-17T17:16:44.999Z,-6.55
2022-12-17T17:19:11.817Z,-6.55
2022-12-17T17:21:59.851Z,-6.53
2022-12-17T17:24:26.702Z,-6.56
2022-12-17T17:27:00.368Z,-6.61
2022-12-17T17:29:27.053Z,-6.60
2022-12-17T17:32:09.910Z,-6.54
2022-12-17T17:34:39.108Z,-6.52
2022-12-17T17:37:05.876Z,-6.57
2022-12-17T17:39:34.338Z,-6.61
2022-12-17T17:42:01.488Z,-6.64
2022-12-17T17:44:28.253Z,-6.67
2022-12-17T17:46:54.888Z,-6.74
2022-12-17T17:49:22.375Z,-6.67
2022-12-17T17:52:09.084Z,-6.78
2022-12-17T17:54:36.416Z,-6.69
2022-12-17T17:57:03.021Z,-6.65
2022-12-17T17:59:33.848Z,-6.70
2022-12-17T18:02:02.823Z,-6.68
2022-12-17T18:04:29.861Z,-6.66
2022-12-17T18:09:43.176Z,-6.72
2022-12-17T18:12:28.250Z,-6.70
2022-12-17T18:17:41.469Z,-6.82
2022-12-17T18:20:09.831Z,-6.80
2022-12-17T18:22:36.753Z,-6.80
2022-12-17T18:25:03.652Z,-6.76
2022-12-17T18:27:30.224Z,-6.72
2022-12-17T18:29:56.982Z,-6.70
2022-12-17T18:32:23.614Z,-6.75
2022-12-17T18:34:50.278Z,-6.72
2022-12-17T18:37:16.904Z,-6.76
2022-12-17T18:39:43.705Z,-6.87
2022-12-17T18:42:28.916Z,-6.97
2022-12-17T18:44:55.697Z,-7.12
2022-12-17T18:47:22.283Z,-7.12
2022-12-17T18:49:49.032Z,-7.11
2022-12-17T18:52:17.362Z,-7.05
2022-12-17T18:54:44.400Z,-7.09
2022-12-17T18:57:11.171Z,-7.14
2022-12-17T18:59:38.590Z,-7.14
2022-12-17T19:02:05.343Z,-7.16
2022-12-17T19:04:33.174Z,-7.16
2022-12-17T19:07:00.279Z,-7.23
2022-12-17T19:09:31.123Z,-7.26
2022-12-17T19:11:58.639Z,-7.26
2022-12-17T19:14:25.808Z,-7.26
2022-12-17T19:16:54.957Z,-7.36
2022-12-17T19:19:21.899Z,-7.40
2022-12-17T19:21:49.767Z,-7.43
2022-12-17T19:24:18.609Z,-7.38
2022-12-17T19:26:46.007Z,-7.35
2022-12-17T19:29:14.457Z,-7.38
2022-12-17T19:31:41.561Z,-7.49
2022-12-17T19:34:11.629Z,-7.52
2022-12-17T19:36:40.087Z,-7.48
2022-12-17T19:39:08.811Z,-7.52
2022-12-17T19:41:35.457Z,-7.58
2022-12-17T19:44:05.563Z,-7.53
2022-12-17T19:46:34.572Z,-7.65
2022-12-17T19:49:02.019Z,-7.73
2022-12-17T19:51:30.743Z,-7.84
2022-12-17T19:54:00.747Z,-7.74
2022-12-17T19:56:33.529Z,-7.69
2022-12-17T19:59:02.493Z,-7.65
2022-12-17T20:01:31.855Z,-7.67
2022-12-17T20:03:59.453Z,-7.70
2022-12-17T20:06:31.181Z,-7.85
2022-12-17T20:08:59.445Z,-7.78
2022-12-17T20:11:33.134Z,-7.79
2022-12-17T20:14:03.019Z,-7.75
2022-12-17T20:16:32.781Z,-7.70
2022-12-17T20:19:01.121Z,-7.85
2022-12-17T20:21:28.259Z,-7.92
2022-12-17T20:23:57.015Z,-7.85
2022-12-17T20:26:24.300Z,-7.93
2022-12-17T20:28:51.348Z,-7.84
2022-12-17T20:31:18.436Z,-7.80
2022-12-17T20:33:45.252Z,-7.78
2022-12-17T20:36:15.255Z,-7.92
2022-12-17T20:38:43.122Z,-7.96
2022-12-17T20:41:11.911Z,-8.00
2022-12-17T20:43:38.786Z,-7.94
2022-12-17T20:46:06.539Z,-7.92
2022-12-17T20:48:33.374Z,-7.93
2022-12-17T20:51:05.325Z,-7.96
2022-12-17T20:53:33.252Z,-7.96
2022-12-17T20:56:04.976Z,-7.99
2022-12-17T20:58:31.658Z,-8.03
2022-12-17T21:01:06.403Z,-8.23
2022-12-17T21:03:34.108Z,-8.10
2022-12-17T21:06:22.227Z,-8.08
2022-12-17T21:08:51.140Z,-8.04
2022-12-17T21:11:20.186Z,-8.03
2022-12-17T21:13:46.955Z,-8.00
2022-12-17T21:16:16.910Z,-8.00
2022-12-17T21:18:43.619Z,-8.00
2022-12-17T21:21:22.972Z,-7.97
2022-12-17T21:23:50.450Z,-7.97
2022-12-17T21:26:18.687Z,-8.06
2022-12-17T21:28:47.325Z,-8.07
2022-12-17T21:31:30.163Z,-8.13
2022-12-17T21:33:59.673Z,-8.20
2022-12-17T21:36:28.724Z,-8.23
2022-12-17T21:38:55.889Z,-8.26
2022-12-17T21:41:28.354Z,-8.32
2022-12-17T21:43:57.803Z,-8.34
2022-12-17T21:46:27.172Z,-8.36
2022-12-17T21:48:54.065Z,-8.50
2022-12-17T21:51:21.255Z,-8.49
2022-12-17T21:53:49.113Z,-8.47
2022-12-17T21:56:18.011Z,-8.45
2022-12-17T21:58:45.771Z,-8.47
2022-12-17T22:01:19.183Z,-8.52
2022-12-17T22:03:50.223Z,-8.52
2022-12-17T22:06:23.456Z,-8.53
2022-12-17T22:08:52.237Z,-8.62
2022-12-17T22:11:24.835Z,-8.60
2022-12-17T22:14:15.578Z,-8.70
2022-12-17T22:16:49.299Z,-8.92
2022-12-17T22:19:21.979Z,-8.85
2022-12-17T22:21:50.872Z,-8.83
2022-12-17T22:24:21.257Z,-8.81
2022-12-17T22:26:48.598Z,-8.79
2022-12-17T22:29:34.281Z,-8.76
2022-12-17T22:32:19.810Z,-8.76
2022-12-17T22:35:12.141Z,-8.78
2022-12-17T22:42:06.262Z,-8.81
2022-12-17T22:44:33.456Z,-8.84
2022-12-17T22:44:40.696Z,-8.90
2022-12-17T22:46:17.110Z,-9.00
2022-12-17T22:48:43.940Z,-9.07
2022-12-17T22:51:13.349Z,-9.09
2022-12-17T22:53:48.298Z,-9.07
2022-12-17T22:56:21.798Z,-9.09
2022-12-17T22:59:02.147Z,-9.08
2022-12-17T23:01:28.837Z,-9.07
2022-12-17T23:03:57.487Z,-9.04
2022-12-17T23:06:25.008Z,-9.03
2022-12-17T23:08:52.260Z,-9.11
2022-12-17T23:11:24.957Z,-9.07
2022-12-17T23:13:54.188Z,-9.04
2022-12-17T23:16:21.240Z,-9.02
2022-12-17T23:18:49.824Z,-9.00
2022-12-17T23:21:20.711Z,-9.02
2022-12-17T23:23:47.579Z,-9.03
2022-12-17T23:26:21.259Z,-9.07
2022-12-17T23:28:48.439Z,-9.03
2022-12-17T23:31:19.226Z,-9.07
2022-12-17T23:33:46.637Z,-9.06
2022-12-17T23:36:19.544Z,-9.08
2022-12-17T23:38:47.700Z,-9.12
2022-12-17T23:41:58.197Z,-9.18
2022-12-17T23:44:24.882Z,-9.22
2022-12-17T23:46:51.576Z,-9.26
2022-12-17T23:49:18.420Z,-9.32
2022-12-17T23:51:45.115Z,-9.29
2022-12-17T23:54:11.853Z,-9.38
2022-12-17T23:56:42.041Z,-9.35
2022-12-17T23:59:12.346Z,-9.42
